U S A F Academy, Colorado
Current Conditions -  °F | °C
As of 10:56 AM on Tuesday 21 Oct 2014 (Local Time) from KSHM Reporting Station
Clear Clear  
Wind Chill: 62°   Ceiling: Unl
Heat Index: 62°   Visibility: 10mi
Dew Point: 41°   Wind: 5mph
Humidity: 47%   Direction: 140°SE
Pressure: 30.11"   Gusts: NA
Location:  38.8247°N, 104.562°W
Report Text: KSHM 211656Z AUTO 14004KT 10SM CLR 17/05 A3011 RMK AO2 SLP149 T01650052
Loading
Personal Weather Stations






























Interactive Weather Map New forecast layout! Learn more

10-Day Weather Forecast

Advertisements
Track Severe Weather on mobile